sensor_id;sensor_type;location;lat;lon;timestamp;temperature;humidity
35246;DHT22;21379;50.962;6.960;2022-12-19T00:01:01;0.10;99.90
35246;DHT22;21379;50.962;6.960;2022-12-19T00:03:29;0.10;99.90
35246;DHT22;21379;50.962;6.960;2022-12-19T00:06:00;0.10;99.90
35246;DHT22;21379;50.962;6.960;2022-12-19T00:08:27;0.10;99.90
35246;DHT22;21379;50.962;6.960;2022-12-19T00:10:55;0.10;99.90
35246;DHT22;21379;50.962;6.960;2022-12-19T00:13:23;0.20;99.90
35246;DHT22;21379;50.962;6.960;2022-12-19T00:15:50;0.20;99.90
35246;DHT22;21379;50.962;6.960;2022-12-19T00:18:17;0.30;99.90
35246;DHT22;21379;50.962;6.960;2022-12-19T00:20:43;0.30;99.90
35246;DHT22;21379;50.962;6.960;2022-12-19T00:23:12;0.20;99.90
35246;DHT22;21379;50.962;6.960;2022-12-19T00:25:38;0.30;99.90
35246;DHT22;21379;50.962;6.960;2022-12-19T00:28:05;0.30;99.90
35246;DHT22;21379;50.962;6.960;2022-12-19T00:30:32;0.30;99.90
35246;DHT22;21379;50.962;6.960;2022-12-19T00:32:59;0.30;99.90
35246;DHT22;21379;50.962;6.960;2022-12-19T00:35:25;0.40;99.90
35246;DHT22;21379;50.962;6.960;2022-12-19T00:37:52;0.30;99.90
35246;DHT22;21379;50.962;6.960;2022-12-19T00:40:21;0.40;99.90
35246;DHT22;21379;50.962;6.960;2022-12-19T00:42:47;0.40;99.90
35246;DHT22;21379;50.962;6.960;2022-12-19T00:45:14;0.40;99.90
35246;DHT22;21379;50.962;6.960;2022-12-19T00:47:41;0.40;99.90
35246;DHT22;21379;50.962;6.960;2022-12-19T00:50:09;0.40;99.90
35246;DHT22;21379;50.962;6.960;2022-12-19T00:52:35;0.40;99.90
35246;DHT22;21379;50.962;6.960;2022-12-19T00:55:02;0.50;99.90
35246;DHT22;21379;50.962;6.960;2022-12-19T00:57:30;0.50;99.90
35246;DHT22;21379;50.962;6.960;2022-12-19T00:59:57;0.50;99.90
35246;DHT22;21379;50.962;6.960;2022-12-19T01:02:24;0.60;99.90
35246;DHT22;21379;50.962;6.960;2022-12-19T01:04:51;0.50;99.90
35246;DHT22;21379;50.962;6.960;2022-12-19T01:07:18;0.60;99.90
35246;DHT22;21379;50.962;6.960;2022-12-19T01:09:45;0.60;99.90
35246;DHT22;21379;50.962;6.960;2022-12-19T01:12:12;0.60;99.90
35246;DHT22;21379;50.962;6.960;2022-12-19T01:14:57;0.70;99.90
35246;DHT22;21379;50.962;6.960;2022-12-19T01:17:24;0.70;99.90
35246;DHT22;21379;50.962;6.960;2022-12-19T01:19:51;0.70;99.90
35246;DHT22;21379;50.962;6.960;2022-12-19T01:22:18;0.80;99.90
35246;DHT22;21379;50.962;6.960;2022-12-19T01:24:44;0.80;99.90
35246;DHT22;21379;50.962;6.960;2022-12-19T01:27:11;0.80;99.90
35246;DHT22;21379;50.962;6.960;2022-12-19T01:29:38;0.80;99.90
35246;DHT22;21379;50.962;6.960;2022-12-19T01:32:06;0.80;99.90
35246;DHT22;21379;50.962;6.960;2022-12-19T01:34:33;0.90;99.90
35246;DHT22;21379;50.962;6.960;2022-12-19T01:37:00;0.80;99.90
35246;DHT22;21379;50.962;6.960;2022-12-19T01:39:27;0.80;99.90
35246;DHT22;21379;50.962;6.960;2022-12-19T01:41:54;0.90;99.90
35246;DHT22;21379;50.962;6.960;2022-12-19T01:44:23;0.90;99.90
35246;DHT22;21379;50.962;6.960;2022-12-19T01:46:52;0.90;99.90
35246;DHT22;21379;50.962;6.960;2022-12-19T01:49:27;1.00;99.90
35246;DHT22;21379;50.962;6.960;2022-12-19T01:51:57;0.90;99.90
35246;DHT22;21379;50.962;6.960;2022-12-19T01:54:27;1.00;99.90
35246;DHT22;21379;50.962;6.960;2022-12-19T01:56:56;1.00;99.90
35246;DHT22;21379;50.962;6.960;2022-12-19T01:59:27;1.00;99.90
35246;DHT22;21379;50.962;6.960;2022-12-19T02:01:59;1.10;99.90
35246;DHT22;21379;50.962;6.960;2022-12-19T02:04:28;1.10;99.90
35246;DHT22;21379;50.962;6.960;2022-12-19T02:06:56;1.10;99.90
35246;DHT22;21379;50.962;6.960;2022-12-19T02:09:24;1.10;99.90
35246;DHT22;21379;50.962;6.960;2022-12-19T02:11:51;1.20;99.90
35246;DHT22;21379;50.962;6.960;2022-12-19T02:14:18;1.20;99.90
35246;DHT22;21379;50.962;6.960;2022-12-19T02:16:50;1.20;99.90
35246;DHT22;21379;50.962;6.960;2022-12-19T02:22:19;1.30;99.90
35246;DHT22;21379;50.962;6.960;2022-12-19T02:28:05;1.30;99.90
35246;DHT22;21379;50.962;6.960;2022-12-19T02:30:44;1.30;99.90
35246;DHT22;21379;50.962;6.960;2022-12-19T02:33:20;1.30;99.90
35246;DHT22;21379;50.962;6.960;2022-12-19T02:35:51;1.30;99.90
35246;DHT22;21379;50.962;6.960;2022-12-19T02:38:25;1.40;99.90
35246;DHT22;21379;50.962;6.960;2022-12-19T02:40:54;1.40;99.90
35246;DHT22;21379;50.962;6.960;2022-12-19T02:43:23;1.40;99.90
35246;DHT22;21379;50.962;6.960;2022-12-19T02:45:52;1.40;99.90
35246;DHT22;21379;50.962;6.960;2022-12-19T02:48:21;1.40;99.90
35246;DHT22;21379;50.962;6.960;2022-12-19T02:50:48;1.40;99.90
35246;DHT22;21379;50.962;6.960;2022-12-19T02:53:15;1.40;99.90
35246;DHT22;21379;50.962;6.960;2022-12-19T02:55:47;1.40;99.90
35246;DHT22;21379;50.962;6.960;2022-12-19T02:58:39;1.40;99.90
35246;DHT22;21379;50.962;6.960;2022-12-19T03:01:17;1.40;99.90
35246;DHT22;21379;50.962;6.960;2022-12-19T03:03:56;1.40;99.90
35246;DHT22;21379;50.962;6.960;2022-12-19T03:06:30;1.50;99.90
35246;DHT22;21379;50.962;6.960;2022-12-19T03:09:01;1.50;99.90
35246;DHT22;21379;50.962;6.960;2022-12-19T03:11:32;1.50;99.90
35246;DHT22;21379;50.962;6.960;2022-12-19T03:14:02;1.50;99.90
35246;DHT22;21379;50.962;6.960;2022-12-19T03:16:34;1.50;99.90
35246;DHT22;21379;50.962;6.960;2022-12-19T03:19:02;1.50;99.90
35246;DHT22;21379;50.962;6.960;2022-12-19T03:21:33;1.50;99.90
35246;DHT22;21379;50.962;6.960;2022-12-19T03:24:01;1.50;99.90
35246;DHT22;21379;50.962;6.960;2022-12-19T03:26:31;1.50;99.90
35246;DHT22;21379;50.962;6.960;2022-12-19T03:29:06;1.40;99.90
35246;DHT22;21379;50.962;6.960;2022-12-19T03:31:36;1.40;99.90
35246;DHT22;21379;50.962;6.960;2022-12-19T03:34:08;1.40;99.90
35246;DHT22;21379;50.962;6.960;2022-12-19T03:36:39;1.40;99.90
35246;DHT22;21379;50.962;6.960;2022-12-19T03:39:09;1.40;99.90
35246;DHT22;21379;50.962;6.960;2022-12-19T03:41:37;1.40;99.90
35246;DHT22;21379;50.962;6.960;2022-12-19T03:44:23;1.40;99.90
35246;DHT22;21379;50.962;6.960;2022-12-19T03:46:57;1.40;99.90
35246;DHT22;21379;50.962;6.960;2022-12-19T03:49:26;1.50;99.90
35246;DHT22;21379;50.962;6.960;2022-12-19T03:51:58;1.40;99.90
35246;DHT22;21379;50.962;6.960;2022-12-19T03:54:28;1.50;99.90
35246;DHT22;21379;50.962;6.960;2022-12-19T03:57:00;1.50;99.90
35246;DHT22;21379;50.962;6.960;2022-12-19T03:59:32;1.50;99.90
35246;DHT22;21379;50.962;6.960;2022-12-19T04:02:02;1.50;99.90
35246;DHT22;21379;50.962;6.960;2022-12-19T04:04:30;1.60;99.90
35246;DHT22;21379;50.962;6.960;2022-12-19T04:07:00;1.60;99.90
35246;DHT22;21379;50.962;6.960;2022-12-19T04:09:29;1.60;99.90
35246;DHT22;21379;50.962;6.960;2022-12-19T04:11:59;1.50;99.90
35246;DHT22;21379;50.962;6.960;2022-12-19T04:14:29;1.60;99.90
35246;DHT22;21379;50.962;6.960;2022-12-19T04:17:06;1.60;99.90
35246;DHT22;21379;50.962;6.960;2022-12-19T04:19:39;1.60;99.90
35246;DHT22;21379;50.962;6.960;2022-12-19T04:22:21;1.60;99.90
35246;DHT22;21379;50.962;6.960;2022-12-19T04:24:52;1.70;99.90
35246;DHT22;21379;50.962;6.960;2022-12-19T04:27:20;1.70;99.90
35246;DHT22;21379;50.962;6.960;2022-12-19T04:29:50;1.70;99.90
35246;DHT22;21379;50.962;6.960;2022-12-19T04:32:19;1.80;99.90
35246;DHT22;21379;50.962;6.960;2022-12-19T04:34:46;1.80;99.90
35246;DHT22;21379;50.962;6.960;2022-12-19T04:37:13;1.80;99.90
35246;DHT22;21379;50.962;6.960;2022-12-19T04:39:40;1.90;99.90
35246;DHT22;21379;50.962;6.960;2022-12-19T04:42:07;1.90;99.90
35246;DHT22;21379;50.962;6.960;2022-12-19T04:44:34;1.90;99.90
35246;DHT22;21379;50.962;6.960;2022-12-19T04:47:00;1.90;99.90
35246;DHT22;21379;50.962;6.960;2022-12-19T04:49:29;2.00;99.90
35246;DHT22;21379;50.962;6.960;2022-12-19T04:51:56;1.90;99.90
35246;DHT22;21379;50.962;6.960;2022-12-19T04:54:22;1.90;99.90
35246;DHT22;21379;50.962;6.960;2022-12-19T04:56:49;2.00;99.90
35246;DHT22;21379;50.962;6.960;2022-12-19T04:59:17;2.00;99.90
35246;DHT22;21379;50.962;6.960;2022-12-19T05:01:44;2.00;99.90
35246;DHT22;21379;50.962;6.960;2022-12-19T05:04:11;2.10;99.90
35246;DHT22;21379;50.962;6.960;2022-12-19T05:06:39;2.00;99.90
35246;DHT22;21379;50.962;6.960;2022-12-19T05:09:06;2.10;99.90
35246;DHT22;21379;50.962;6.960;2022-12-19T05:11:33;2.10;99.90
35246;DHT22;21379;50.962;6.960;2022-12-19T05:13:59;2.10;99.90
35246;DHT22;21379;50.962;6.960;2022-12-19T05:16:26;2.10;99.90
35246;DHT22;21379;50.962;6.960;2022-12-19T05:18:54;2.10;99.90
35246;DHT22;21379;50.962;6.960;2022-12-19T05:21:21;2.10;99.90
35246;DHT22;21379;50.962;6.960;2022-12-19T05:23:50;2.20;99.90
35246;DHT22;21379;50.962;6.960;2022-12-19T05:26:16;2.30;99.90
35246;DHT22;21379;50.962;6.960;2022-12-19T05:28:43;2.30;99.90
35246;DHT22;21379;50.962;6.960;2022-12-19T05:31:12;2.30;99.90
35246;DHT22;21379;50.962;6.960;2022-12-19T05:33:40;2.30;99.90
35246;DHT22;21379;50.962;6.960;2022-12-19T05:36:08;2.30;99.90
35246;DHT22;21379;50.962;6.960;2022-12-19T05:38:35;2.30;99.90
35246;DHT22;21379;50.962;6.960;2022-12-19T05:41:07;2.40;99.90
35246;DHT22;21379;50.962;6.960;2022-12-19T05:43:34;2.40;99.90
35246;DHT22;21379;50.962;6.960;2022-12-19T05:46:00;2.40;99.90
35246;DHT22;21379;50.962;6.960;2022-12-19T05:48:29;2.50;99.90
35246;DHT22;21379;50.962;6.960;2022-12-19T05:50:56;2.50;99.90
35246;DHT22;21379;50.962;6.960;2022-12-19T05:53:23;2.50;99.90
35246;DHT22;21379;50.962;6.960;2022-12-19T05:55:52;2.50;99.90
35246;DHT22;21379;50.962;6.960;2022-12-19T05:58:20;2.60;99.90
35246;DHT22;21379;50.962;6.960;2022-12-19T06:00:47;2.60;99.90
35246;DHT22;21379;50.962;6.960;2022-12-19T06:03:14;2.60;99.90
35246;DHT22;21379;50.962;6.960;2022-12-19T06:05:41;2.60;99.90
35246;DHT22;21379;50.962;6.960;2022-12-19T06:08:07;2.70;99.90
35246;DHT22;21379;50.962;6.960;2022-12-19T06:10:34;2.70;99.90
35246;DHT22;21379;50.962;6.960;2022-12-19T06:13:01;2.60;99.90
35246;DHT22;21379;50.962;6.960;2022-12-19T06:15:29;2.70;99.90
35246;DHT22;21379;50.962;6.960;2022-12-19T06:17:56;2.80;99.90
35246;DHT22;21379;50.962;6.960;2022-12-19T06:20:23;2.80;99.90
35246;DHT22;21379;50.962;6.960;2022-12-19T06:22:50;2.80;99.90
35246;DHT22;21379;50.962;6.960;2022-12-19T06:25:16;2.90;99.90
35246;DHT22;21379;50.962;6.960;2022-12-19T06:27:43;2.90;99.90
35246;DHT22;21379;50.962;6.960;2022-12-19T06:30:11;3.00;99.90
35246;DHT22;21379;50.962;6.960;2022-12-19T06:32:40;3.00;99.90
35246;DHT22;21379;50.962;6.960;2022-12-19T06:35:07;3.00;99.90
35246;DHT22;21379;50.962;6.960;2022-12-19T06:37:34;3.10;99.90
35246;DHT22;21379;50.962;6.960;2022-12-19T06:40:01;3.10;99.90
35246;DHT22;21379;50.962;6.960;2022-12-19T06:42:28;3.10;99.90
35246;DHT22;21379;50.962;6.960;2022-12-19T06:44:54;3.10;99.90
35246;DHT22;21379;50.962;6.960;2022-12-19T06:47:22;3.10;99.90
35246;DHT22;21379;50.962;6.960;2022-12-19T06:49:50;3.20;99.90
35246;DHT22;21379;50.962;6.960;2022-12-19T06:52:17;3.10;99.90
35246;DHT22;21379;50.962;6.960;2022-12-19T06:54:44;3.20;99.90
35246;DHT22;21379;50.962;6.960;2022-12-19T06:57:11;3.20;99.90
35246;DHT22;21379;50.962;6.960;2022-12-19T06:59:38;3.20;99.90
35246;DHT22;21379;50.962;6.960;2022-12-19T07:02:10;3.20;99.90
35246;DHT22;21379;50.962;6.960;2022-12-19T07:04:42;3.20;99.90
35246;DHT22;21379;50.962;6.960;2022-12-19T07:07:13;3.20;99.90
35246;DHT22;21379;50.962;6.960;2022-12-19T07:09:40;3.20;99.90
35246;DHT22;21379;50.962;6.960;2022-12-19T07:12:07;3.20;99.90
35246;DHT22;21379;50.962;6.960;2022-12-19T07:14:34;3.20;99.90
35246;DHT22;21379;50.962;6.960;2022-12-19T07:17:01;3.20;99.90
35246;DHT22;21379;50.962;6.960;2022-12-19T07:19:30;3.20;99.90
35246;DHT22;21379;50.962;6.960;2022-12-19T07:21:59;3.20;99.90
35246;DHT22;21379;50.962;6.960;2022-12-19T07:24:27;3.20;99.90
35246;DHT22;21379;50.962;6.960;2022-12-19T07:26:55;3.20;99.90
35246;DHT22;21379;50.962;6.960;2022-12-19T07:29:22;3.20;99.90
35246;DHT22;21379;50.962;6.960;2022-12-19T07:31:48;3.30;99.90
35246;DHT22;21379;50.962;6.960;2022-12-19T07:34:15;3.30;99.90
35246;DHT22;21379;50.962;6.960;2022-12-19T07:36:42;3.30;99.90
35246;DHT22;21379;50.962;6.960;2022-12-19T07:39:09;3.30;99.90
35246;DHT22;21379;50.962;6.960;2022-12-19T07:41:37;3.30;99.90
35246;DHT22;21379;50.962;6.960;2022-12-19T07:44:05;3.40;99.90
35246;DHT22;21379;50.962;6.960;2022-12-19T07:46:32;3.40;99.90
35246;DHT22;21379;50.962;6.960;2022-12-19T07:48:58;3.40;99.90
35246;DHT22;21379;50.962;6.960;2022-12-19T07:51:25;3.40;99.90
35246;DHT22;21379;50.962;6.960;2022-12-19T07:53:52;3.40;99.90
35246;DHT22;21379;50.962;6.960;2022-12-19T07:56:19;3.50;99.90
35246;DHT22;21379;50.962;6.960;2022-12-19T07:58:47;3.50;99.90
35246;DHT22;21379;50.962;6.960;2022-12-19T08:01:14;3.50;99.90
35246;DHT22;21379;50.962;6.960;2022-12-19T08:03:41;3.50;99.90
35246;DHT22;21379;50.962;6.960;2022-12-19T08:06:08;3.50;99.90
35246;DHT22;21379;50.962;6.960;2022-12-19T08:08:35;3.60;99.90
35246;DHT22;21379;50.962;6.960;2022-12-19T08:11:10;3.60;99.90
35246;DHT22;21379;50.962;6.960;2022-12-19T08:13:37;3.60;99.90
35246;DHT22;21379;50.962;6.960;2022-12-19T08:16:06;3.60;99.90
35246;DHT22;21379;50.962;6.960;2022-12-19T08:18:35;3.60;99.90
35246;DHT22;21379;50.962;6.960;2022-12-19T08:21:02;3.70;99.90
35246;DHT22;21379;50.962;6.960;2022-12-19T08:23:28;3.80;99.90
35246;DHT22;21379;50.962;6.960;2022-12-19T08:25:59;3.70;99.90
35246;DHT22;21379;50.962;6.960;2022-12-19T08:28:26;3.80;99.90
35246;DHT22;21379;50.962;6.960;2022-12-19T08:30:53;3.80;99.90
35246;DHT22;21379;50.962;6.960;2022-12-19T08:33:21;3.90;99.90
35246;DHT22;21379;50.962;6.960;2022-12-19T08:35:48;3.90;99.90
35246;DHT22;21379;50.962;6.960;2022-12-19T08:38:15;3.90;99.90
35246;DHT22;21379;50.962;6.960;2022-12-19T08:40:42;3.90;99.90
35246;DHT22;21379;50.962;6.960;2022-12-19T08:43:09;4.00;99.90
35246;DHT22;21379;50.962;6.960;2022-12-19T08:45:35;3.90;99.90
35246;DHT22;21379;50.962;6.960;2022-12-19T08:48:03;4.00;99.90
35246;DHT22;21379;50.962;6.960;2022-12-19T08:50:31;4.00;99.90
35246;DHT22;21379;50.962;6.960;2022-12-19T08:52:58;4.10;99.90
35246;DHT22;21379;50.962;6.960;2022-12-19T08:55:24;4.10;99.90
35246;DHT22;21379;50.962;6.960;2022-12-19T08:57:51;4.20;99.90
35246;DHT22;21379;50.962;6.960;2022-12-19T09:00:18;4.20;99.90
35246;DHT22;21379;50.962;6.960;2022-12-19T09:02:46;4.30;99.90
35246;DHT22;21379;50.962;6.960;2022-12-19T09:05:13;4.30;99.90
35246;DHT22;21379;50.962;6.960;2022-12-19T09:07:42;4.40;99.90
35246;DHT22;21379;50.962;6.960;2022-12-19T09:10:09;4.40;99.90
35246;DHT22;21379;50.962;6.960;2022-12-19T09:12:35;4.40;99.90
35246;DHT22;21379;50.962;6.960;2022-12-19T09:15:03;4.50;99.90
35246;DHT22;21379;50.962;6.960;2022-12-19T09:17:29;4.50;99.90
35246;DHT22;21379;50.962;6.960;2022-12-19T09:19:56;4.50;99.90
35246;DHT22;21379;50.962;6.960;2022-12-19T09:22:23;4.50;99.90
35246;DHT22;21379;50.962;6.960;2022-12-19T09:24:51;4.60;99.90
35246;DHT22;21379;50.962;6.960;2022-12-19T09:27:18;4.50;99.90
35246;DHT22;21379;50.962;6.960;2022-12-19T09:29:45;4.60;99.90
35246;DHT22;21379;50.962;6.960;2022-12-19T09:32:11;4.50;99.90
35246;DHT22;21379;50.962;6.960;2022-12-19T09:34:38;4.50;99.90
35246;DHT22;21379;50.962;6.960;2022-12-19T09:37:06;4.60;99.90
35246;DHT22;21379;50.962;6.960;2022-12-19T09:39:34;4.50;99.90
35246;DHT22;21379;50.962;6.960;2022-12-19T09:42:13;4.50;99.90
35246;DHT22;21379;50.962;6.960;2022-12-19T09:45:02;4.60;99.90
35246;DHT22;21379;50.962;6.960;2022-12-19T09:47:31;4.50;99.90
35246;DHT22;21379;50.962;6.960;2022-12-19T09:49:59;4.50;99.90
35246;DHT22;21379;50.962;6.960;2022-12-19T09:52:31;4.50;99.90
35246;DHT22;21379;50.962;6.960;2022-12-19T09:55:02;4.40;99.90
35246;DHT22;21379;50.962;6.960;2022-12-19T09:57:36;4.40;99.90
35246;DHT22;21379;50.962;6.960;2022-12-19T10:00:09;4.40;99.90
35246;DHT22;21379;50.962;6.960;2022-12-19T10:02:41;4.40;99.90
35246;DHT22;21379;50.962;6.960;2022-12-19T10:05:15;4.40;99.90
35246;DHT22;21379;50.962;6.960;2022-12-19T10:07:44;4.40;99.90
35246;DHT22;21379;50.962;6.960;2022-12-19T10:10:14;4.50;99.90
35246;DHT22;21379;50.962;6.960;2022-12-19T10:13:00;4.50;99.90
35246;DHT22;21379;50.962;6.960;2022-12-19T10:15:40;4.50;99.90
35246;DHT22;21379;50.962;6.960;2022-12-19T10:18:21;4.50;99.90
35246;DHT22;21379;50.962;6.960;2022-12-19T10:20:53;4.50;99.90
35246;DHT22;21379;50.962;6.960;2022-12-19T10:23:46;4.60;99.90
35246;DHT22;21379;50.962;6.960;2022-12-19T10:26:18;4.60;99.90
35246;DHT22;21379;50.962;6.960;2022-12-19T10:29:00;4.60;99.90
35246;DHT22;21379;50.962;6.960;2022-12-19T10:31:36;4.60;99.90
35246;DHT22;21379;50.962;6.960;2022-12-19T10:34:12;4.60;99.90
35246;DHT22;21379;50.962;6.960;2022-12-19T10:36:43;4.60;99.90
35246;DHT22;21379;50.962;6.960;2022-12-19T10:39:16;4.60;99.90
35246;DHT22;21379;50.962;6.960;2022-12-19T10:41:48;4.60;99.90
35246;DHT22;21379;50.962;6.960;2022-12-19T10:44:21;4.60;99.90
35246;DHT22;21379;50.962;6.960;2022-12-19T10:46:49;4.60;99.90
35246;DHT22;21379;50.962;6.960;2022-12-19T10:49:17;4.60;99.90
35246;DHT22;21379;50.962;6.960;2022-12-19T10:51:52;4.60;99.90
35246;DHT22;21379;50.962;6.960;2022-12-19T10:54:24;4.70;99.90
35246;DHT22;21379;50.962;6.960;2022-12-19T10:56:51;4.70;99.90
35246;DHT22;21379;50.962;6.960;2022-12-19T10:59:20;4.70;99.90
35246;DHT22;21379;50.962;6.960;2022-12-19T11:01:47;4.80;99.90
35246;DHT22;21379;50.962;6.960;2022-12-19T11:04:23;4.80;99.90
35246;DHT22;21379;50.962;6.960;2022-12-19T11:07:04;4.90;99.90
35246;DHT22;21379;50.962;6.960;2022-12-19T11:09:36;4.90;99.90
35246;DHT22;21379;50.962;6.960;2022-12-19T11:12:10;4.90;99.90
35246;DHT22;21379;50.962;6.960;2022-12-19T11:14:41;4.90;99.90
35246;DHT22;21379;50.962;6.960;2022-12-19T11:17:26;4.90;99.90
35246;DHT22;21379;50.962;6.960;2022-12-19T11:20:10;5.00;99.90
35246;DHT22;21379;50.962;6.960;2022-12-19T11:22:37;4.90;99.90
35246;DHT22;21379;50.962;6.960;2022-12-19T11:25:05;5.00;99.90
35246;DHT22;21379;50.962;6.960;2022-12-19T11:27:39;5.00;99.90
35246;DHT22;21379;50.962;6.960;2022-12-19T11:30:18;5.00;99.90
35246;DHT22;21379;50.962;6.960;2022-12-19T11:32:47;5.00;99.90
35246;DHT22;21379;50.962;6.960;2022-12-19T11:35:18;5.10;99.90
35246;DHT22;21379;50.962;6.960;2022-12-19T11:37:48;5.10;99.90
35246;DHT22;21379;50.962;6.960;2022-12-19T11:40:21;5.10;99.90
35246;DHT22;21379;50.962;6.960;2022-12-19T11:42:53;5.10;99.90
35246;DHT22;21379;50.962;6.960;2022-12-19T11:45:28;5.10;99.90
35246;DHT22;21379;50.962;6.960;2022-12-19T11:48:03;5.10;99.90
35246;DHT22;21379;50.962;6.960;2022-12-19T11:50:36;5.10;99.90
35246;DHT22;21379;50.962;6.960;2022-12-19T11:53:09;5.20;99.90
35246;DHT22;21379;50.962;6.960;2022-12-19T11:55:43;5.20;99.90
35246;DHT22;21379;50.962;6.960;2022-12-19T11:58:11;5.20;99.90
35246;DHT22;21379;50.962;6.960;2022-12-19T12:00:48;5.20;99.90
35246;DHT22;21379;50.962;6.960;2022-12-19T12:03:38;5.30;99.90
35246;DHT22;21379;50.962;6.960;2022-12-19T12:06:11;5.20;99.90
35246;DHT22;21379;50.962;6.960;2022-12-19T12:08:48;5.20;99.90
35246;DHT22;21379;50.962;6.960;2022-12-19T12:11:29;5.30;99.90
35246;DHT22;21379;50.962;6.960;2022-12-19T12:14:15;5.30;99.90
35246;DHT22;21379;50.962;6.960;2022-12-19T12:17:03;5.30;99.90
35246;DHT22;21379;50.962;6.960;2022-12-19T12:19:51;5.40;99.90
35246;DHT22;21379;50.962;6.960;2022-12-19T12:22:39;5.50;99.90
35246;DHT22;21379;50.962;6.960;2022-12-19T12:25:27;5.40;99.90
35246;DHT22;21379;50.962;6.960;2022-12-19T12:28:05;5.50;99.90
35246;DHT22;21379;50.962;6.960;2022-12-19T12:30:42;5.50;99.90
35246;DHT22;21379;50.962;6.960;2022-12-19T12:33:20;5.50;99.90
35246;DHT22;21379;50.962;6.960;2022-12-19T12:35:54;5.60;99.90
35246;DHT22;21379;50.962;6.960;2022-12-19T12:38:38;5.60;99.90
35246;DHT22;21379;50.962;6.960;2022-12-19T12:41:15;5.70;99.90
35246;DHT22;21379;50.962;6.960;2022-12-19T12:44:00;5.70;99.90
35246;DHT22;21379;50.962;6.960;2022-12-19T12:46:35;5.80;99.90
35246;DHT22;21379;50.962;6.960;2022-12-19T12:49:20;5.80;99.90
35246;DHT22;21379;50.962;6.960;2022-12-19T12:51:49;5.90;99.90
35246;DHT22;21379;50.962;6.960;2022-12-19T12:54:16;5.90;99.90
35246;DHT22;21379;50.962;6.960;2022-12-19T12:56:44;5.90;99.90
35246;DHT22;21379;50.962;6.960;2022-12-19T12:59:22;5.90;99.90
35246;DHT22;21379;50.962;6.960;2022-12-19T13:01:52;5.90;99.90
35246;DHT22;21379;50.962;6.960;2022-12-19T13:04:25;5.90;99.90
35246;DHT22;21379;50.962;6.960;2022-12-19T13:07:26;5.90;99.90
35246;DHT22;21379;50.962;6.960;2022-12-19T13:10:06;5.90;99.90
35246;DHT22;21379;50.962;6.960;2022-12-19T13:12:52;5.90;99.90
35246;DHT22;21379;50.962;6.960;2022-12-19T13:15:37;5.90;99.90
35246;DHT22;21379;50.962;6.960;2022-12-19T13:18:12;5.90;99.90
35246;DHT22;21379;50.962;6.960;2022-12-19T13:20:44;5.90;99.90
35246;DHT22;21379;50.962;6.960;2022-12-19T13:23:31;6.00;99.90
35246;DHT22;21379;50.962;6.960;2022-12-19T13:25:58;6.00;99.90
35246;DHT22;21379;50.962;6.960;2022-12-19T13:28:48;6.00;99.90
35246;DHT22;21379;50.962;6.960;2022-12-19T13:31:19;6.00;99.90
35246;DHT22;21379;50.962;6.960;2022-12-19T13:36:47;6.00;99.90
35246;DHT22;21379;50.962;6.960;2022-12-19T13:39:29;6.00;99.90
35246;DHT22;21379;50.962;6.960;2022-12-19T13:42:06;6.00;99.90
35246;DHT22;21379;50.962;6.960;2022-12-19T13:44:55;6.00;99.90
35246;DHT22;21379;50.962;6.960;2022-12-19T13:47:25;6.00;99.90
35246;DHT22;21379;50.962;6.960;2022-12-19T13:49:53;6.00;99.90
35246;DHT22;21379;50.962;6.960;2022-12-19T13:52:22;6.10;99.90
35246;DHT22;21379;50.962;6.960;2022-12-19T13:54:54;6.10;99.90
35246;DHT22;21379;50.962;6.960;2022-12-19T13:57:23;6.10;99.90
35246;DHT22;21379;50.962;6.960;2022-12-19T13:59:51;6.10;99.90
35246;DHT22;21379;50.962;6.960;2022-12-19T14:02:25;6.10;99.90
35246;DHT22;21379;50.962;6.960;2022-12-19T14:04:52;6.10;99.90
35246;DHT22;21379;50.962;6.960;2022-12-19T14:07:28;6.00;99.90
35246;DHT22;21379;50.962;6.960;2022-12-19T14:09:58;6.00;99.90
35246;DHT22;21379;50.962;6.960;2022-12-19T14:12:26;6.00;99.90
35246;DHT22;21379;50.962;6.960;2022-12-19T14:15:24;6.00;99.90
35246;DHT22;21379;50.962;6.960;2022-12-19T14:17:51;6.00;99.90
35246;DHT22;21379;50.962;6.960;2022-12-19T14:20:21;6.00;99.90
35246;DHT22;21379;50.962;6.960;2022-12-19T14:22:49;6.00;99.90
35246;DHT22;21379;50.962;6.960;2022-12-19T14:25:21;6.00;99.90
35246;DHT22;21379;50.962;6.960;2022-12-19T14:27:51;6.00;99.90
35246;DHT22;21379;50.962;6.960;2022-12-19T14:30:21;6.10;99.90
35246;DHT22;21379;50.962;6.960;2022-12-19T14:32:50;6.10;99.90
35246;DHT22;21379;50.962;6.960;2022-12-19T14:35:20;6.10;99.90
35246;DHT22;21379;50.962;6.960;2022-12-19T14:37:56;6.20;99.90
35246;DHT22;21379;50.962;6.960;2022-12-19T14:40:25;6.10;99.90
35246;DHT22;21379;50.962;6.960;2022-12-19T14:42:57;6.20;99.90
35246;DHT22;21379;50.962;6.960;2022-12-19T14:45:43;6.20;99.90
35246;DHT22;21379;50.962;6.960;2022-12-19T14:48:32;6.20;99.90
35246;DHT22;21379;50.962;6.960;2022-12-19T14:51:08;6.10;99.90
35246;DHT22;21379;50.962;6.960;2022-12-19T14:53:38;6.20;99.90
35246;DHT22;21379;50.962;6.960;2022-12-19T14:56:07;6.10;99.90
35246;DHT22;21379;50.962;6.960;2022-12-19T14:58:37;6.10;99.90
35246;DHT22;21379;50.962;6.960;2022-12-19T15:01:17;6.10;99.90
35246;DHT22;21379;50.962;6.960;2022-12-19T15:03:50;6.10;99.90
35246;DHT22;21379;50.962;6.960;2022-12-19T15:06:19;6.10;99.90
35246;DHT22;21379;50.962;6.960;2022-12-19T15:08:50;6.10;99.90
35246;DHT22;21379;50.962;6.960;2022-12-19T15:11:26;6.10;99.90
35246;DHT22;21379;50.962;6.960;2022-12-19T15:14:11;6.10;99.90
35246;DHT22;21379;50.962;6.960;2022-12-19T15:16:38;6.10;99.90
35246;DHT22;21379;50.962;6.960;2022-12-19T15:19:11;6.10;99.90
35246;DHT22;21379;50.962;6.960;2022-12-19T15:21:38;6.10;99.90
35246;DHT22;21379;50.962;6.960;2022-12-19T15:24:07;6.10;99.90
35246;DHT22;21379;50.962;6.960;2022-12-19T15:26:35;6.10;99.90
35246;DHT22;21379;50.962;6.960;2022-12-19T15:29:12;6.10;99.90
35246;DHT22;21379;50.962;6.960;2022-12-19T15:31:41;6.20;99.90
35246;DHT22;21379;50.962;6.960;2022-12-19T15:34:19;6.20;99.90
35246;DHT22;21379;50.962;6.960;2022-12-19T15:36:47;6.30;99.90
35246;DHT22;21379;50.962;6.960;2022-12-19T15:39:15;6.30;99.90
35246;DHT22;21379;50.962;6.960;2022-12-19T15:41:43;6.30;99.90
35246;DHT22;21379;50.962;6.960;2022-12-19T15:44:15;6.40;99.90
35246;DHT22;21379;50.962;6.960;2022-12-19T15:46:42;6.40;99.90
35246;DHT22;21379;50.962;6.960;2022-12-19T15:49:13;6.40;99.90
35246;DHT22;21379;50.962;6.960;2022-12-19T15:51:40;6.40;99.90
35246;DHT22;21379;50.962;6.960;2022-12-19T15:54:07;6.40;99.90
35246;DHT22;21379;50.962;6.960;2022-12-19T15:56:37;6.40;99.90
35246;DHT22;21379;50.962;6.960;2022-12-19T15:59:05;6.40;99.90
35246;DHT22;21379;50.962;6.960;2022-12-19T16:01:38;6.40;99.90
35246;DHT22;21379;50.962;6.960;2022-12-19T16:04:10;6.50;99.90
35246;DHT22;21379;50.962;6.960;2022-12-19T16:06:38;6.50;99.90
35246;DHT22;21379;50.962;6.960;2022-12-19T16:09:14;6.50;99.90
35246;DHT22;21379;50.962;6.960;2022-12-19T16:11:44;6.50;99.90
35246;DHT22;21379;50.962;6.960;2022-12-19T16:14:11;6.60;99.90
35246;DHT22;21379;50.962;6.960;2022-12-19T16:16:38;6.50;99.90